Time;durP1;ratioP1;P1;durP2;ratioP2;P2;SDS_P1;SDS_P2;PMS_P1;PMS_P2;Temp;Humidity;BMP_temperature;BMP_pressure;BME280_temperature;BME280_humidity;BME280_pressure;Samples;Min_cycle;Max_cycle;Signal;HPM_P1;HPM_P2
2023/01/12 00:01:20;;;;;;;25.20;3.55;;;;;;;;;;5105428;28;20035;-66
2023/01/12 00:03:47;;;;;;;25.45;3.83;;;;;;;;;;5104769;28;20061;-66
2023/01/12 00:06:13;;;;;;;37.55;5.32;;;;;;;;;;5104614;27;20039;-66
2023/01/12 00:08:39;;;;;;;24.70;4.28;;;;;;;;;;5095648;28;20126;-66
2023/01/12 00:11:05;;;;;;;27.05;5.38;;;;;;;;;;5096273;27;20149;-66
2023/01/12 00:13:32;;;;;;;23.45;3.72;;;;;;;;;;5095451;28;20530;-66
2023/01/12 00:18:44;;;;;;;28.63;4.57;;;;;;;;;;5097535;27;20044;-66
2023/01/12 00:21:11;;;;;;;25.52;4.00;;;;;;;;;;5091938;28;20115;-66
2023/01/12 00:23:38;;;;;;;22.67;4.05;;;;;;;;;;5102286;28;20050;-66
2023/01/12 00:26:07;;;;;;;38.03;5.03;;;;;;;;;;5093470;28;20051;-66
2023/01/12 00:28:34;;;;;;;38.20;4.75;;;;;;;;;;5103371;28;20039;-66
2023/01/12 00:31:02;;;;;;;27.85;4.18;;;;;;;;;;5102331;27;20591;-66
2023/01/12 00:33:28;;;;;;;30.10;5.22;;;;;;;;;;5102649;28;20077;-65
2023/01/12 00:35:54;;;;;;;27.13;4.43;;;;;;;;;;5101107;28;20039;-66
2023/01/12 00:38:20;;;;;;;31.25;3.95;;;;;;;;;;5101375;28;20126;-65
2023/01/12 00:40:47;;;;;;;29.23;5.28;;;;;;;;;;5103858;28;20043;-65
2023/01/12 00:45:57;;;;;;;29.90;4.30;;;;;;;;;;5101511;28;20059;-65
2023/01/12 00:48:23;;;;;;;26.52;4.50;;;;;;;;;;5097093;27;20044;-66
2023/01/12 00:50:50;;;;;;;31.75;5.28;;;;;;;;;;5095446;28;20058;-66
2023/01/12 00:53:16;;;;;;;35.88;5.18;;;;;;;;;;5094519;27;20044;-66
2023/01/12 00:55:42;;;;;;;28.95;4.72;;;;;;;;;;5101050;28;20101;-66
2023/01/12 00:58:08;;;;;;;29.25;5.38;;;;;;;;;;5093600;28;20040;-66
2023/01/12 01:00:34;;;;;;;29.92;4.90;;;;;;;;;;5097163;27;20172;-66
2023/01/12 01:03:00;;;;;;;25.38;4.68;;;;;;;;;;5101045;28;20054;-66
2023/01/12 01:05:26;;;;;;;27.27;4.32;;;;;;;;;;5100424;28;20042;-66
2023/01/12 01:07:53;;;;;;;26.98;4.15;;;;;;;;;;5099090;28;20039;-66
2023/01/12 01:10:19;;;;;;;24.25;4.28;;;;;;;;;;5097242;28;20138;-66
2023/01/12 01:12:45;;;;;;;29.13;4.45;;;;;;;;;;5098221;28;20079;-65
2023/01/12 01:15:12;;;;;;;27.70;4.25;;;;;;;;;;5098283;28;21912;-66
2023/01/12 01:17:38;;;;;;;30.85;4.70;;;;;;;;;;5098160;28;20040;-65
2023/01/12 01:20:04;;;;;;;30.27;4.32;;;;;;;;;;5101015;28;20039;-66
2023/01/12 01:22:31;;;;;;;21.88;3.63;;;;;;;;;;5100399;28;20067;-66
2023/01/12 01:24:57;;;;;;;29.95;4.25;;;;;;;;;;5104516;28;20036;-66
2023/01/12 01:27:23;;;;;;;32.08;6.07;;;;;;;;;;5098107;28;20039;-66
2023/01/12 01:29:49;;;;;;;31.20;6.03;;;;;;;;;;5100629;28;20065;-66
2023/01/12 01:32:15;;;;;;;42.35;6.20;;;;;;;;;;5105460;28;20040;-66
2023/01/12 01:34:41;;;;;;;29.52;4.82;;;;;;;;;;5098819;28;20119;-66
2023/01/12 01:37:07;;;;;;;23.63;4.13;;;;;;;;;;5102132;28;20031;-66
2023/01/12 01:39:33;;;;;;;36.00;5.10;;;;;;;;;;5095293;28;20048;-66
2023/01/12 01:42:00;;;;;;;30.73;5.80;;;;;;;;;;5098884;28;20059;-66
2023/01/12 01:44:29;;;;;;;31.80;5.30;;;;;;;;;;5100395;28;20534;-66
2023/01/12 01:46:58;;;;;;;28.63;5.03;;;;;;;;;;5094270;28;20063;-66
2023/01/12 01:49:24;;;;;;;36.63;5.40;;;;;;;;;;5079767;28;20055;-66
2023/01/12 01:51:53;;;;;;;42.97;6.97;;;;;;;;;;5093311;28;20048;-66
2023/01/12 01:54:19;;;;;;;35.42;5.80;;;;;;;;;;5095408;28;20501;-66
2023/01/12 01:56:45;;;;;;;31.83;4.72;;;;;;;;;;5098857;28;20116;-66
2023/01/12 01:59:15;;;;;;;39.10;5.90;;;;;;;;;;5098870;28;20050;-66
2023/01/12 02:01:42;;;;;;;29.38;5.57;;;;;;;;;;5099794;27;20055;-65
2023/01/12 02:04:08;;;;;;;59.53;7.38;;;;;;;;;;5093309;28;20067;-67
2023/01/12 02:06:34;;;;;;;33.72;5.93;;;;;;;;;;5099799;28;20053;-65
2023/01/12 02:09:06;;;;;;;40.25;5.85;;;;;;;;;;5097151;28;20031;-65
2023/01/12 02:17:11;;;;;;;42.58;7.25;;;;;;;;;;5100879;28;20047;-65
2023/01/12 02:19:47;;;;;;;50.28;7.03;;;;;;;;;;5099817;28;20122;-65
2023/01/12 02:22:28;;;;;;;45.45;7.13;;;;;;;;;;5098139;28;20039;-66
2023/01/12 02:25:08;;;;;;;50.95;8.15;;;;;;;;;;5099456;27;20051;-66
2023/01/12 02:27:49;;;;;;;38.75;5.38;;;;;;;;;;5094496;27;21480;-66
2023/01/12 02:30:18;;;;;;;38.92;6.53;;;;;;;;;;5098847;28;20043;-67
2023/01/12 02:32:47;;;;;;;36.85;5.85;;;;;;;;;;5094905;28;20544;-67
2023/01/12 02:35:13;;;;;;;42.03;6.70;;;;;;;;;;5101478;28;20425;-67
2023/01/12 02:37:44;;;;;;;42.15;6.97;;;;;;;;;;5095435;28;20039;-67
2023/01/12 02:40:29;;;;;;;44.80;7.68;;;;;;;;;;5101954;27;20115;-67
2023/01/12 02:42:58;;;;;;;44.88;6.68;;;;;;;;;;5097484;28;20039;-67
2023/01/12 02:45:30;;;;;;;50.05;7.30;;;;;;;;;;5101075;28;20087;-67
2023/01/12 02:47:59;;;;;;;51.50;7.00;;;;;;;;;;5099858;28;20169;-67
2023/01/12 02:50:34;;;;;;;46.38;7.85;;;;;;;;;;5098474;28;20089;-67
2023/01/12 02:53:04;;;;;;;53.38;7.65;;;;;;;;;;5100404;28;20107;-68
2023/01/12 02:55:31;;;;;;;56.55;7.18;;;;;;;;;;5103659;28;20047;-67
2023/01/12 02:57:58;;;;;;;47.72;7.70;;;;;;;;;;5103975;28;20040;-67
2023/01/12 03:00:24;;;;;;;51.00;7.10;;;;;;;;;;5102449;28;20348;-67
2023/01/12 03:02:50;;;;;;;46.10;6.85;;;;;;;;;;5103119;28;20043;-67
2023/01/12 03:05:16;;;;;;;52.17;10.30;;;;;;;;;;5097919;28;20055;-67
2023/01/12 03:07:46;;;;;;;47.63;6.50;;;;;;;;;;5101833;28;20062;-67
2023/01/12 03:10:18;;;;;;;41.33;7.57;;;;;;;;;;5100915;28;20048;-67
2023/01/12 03:12:45;;;;;;;38.72;6.97;;;;;;;;;;5098222;28;20035;-67
2023/01/12 03:15:13;;;;;;;51.78;8.45;;;;;;;;;;5098583;28;20089;-67
2023/01/12 03:17:42;;;;;;;43.67;6.07;;;;;;;;;;5100383;28;20032;-67
2023/01/12 03:20:13;;;;;;;63.97;9.73;;;;;;;;;;5095099;28;20127;-67
2023/01/12 03:22:39;;;;;;;41.20;6.72;;;;;;;;;;5096899;28;20071;-67
2023/01/12 03:25:09;;;;;;;44.92;6.95;;;;;;;;;;5097511;28;20508;-67
2023/01/12 03:27:38;;;;;;;55.88;9.77;;;;;;;;;;5096896;28;20090;-67
2023/01/12 03:30:06;;;;;;;62.47;8.80;;;;;;;;;;5097683;28;20058;-67
2023/01/12 03:32:32;;;;;;;47.88;8.45;;;;;;;;;;5098950;28;20047;-67
2023/01/12 03:34:59;;;;;;;44.72;8.32;;;;;;;;;;5098121;28;20071;-66
2023/01/12 03:37:28;;;;;;;45.45;7.88;;;;;;;;;;5101374;28;20644;-67
2023/01/12 03:39:57;;;;;;;35.30;6.93;;;;;;;;;;5095568;28;20574;-67
2023/01/12 03:42:27;;;;;;;43.63;7.53;;;;;;;;;;5096448;28;20079;-67
2023/01/12 03:45:02;;;;;;;51.55;7.53;;;;;;;;;;5102745;28;20044;-67
2023/01/12 03:47:30;;;;;;;56.25;8.05;;;;;;;;;;5102900;28;20035;-67
2023/01/12 03:50:00;;;;;;;54.10;6.95;;;;;;;;;;5105672;28;20086;-67
2023/01/12 03:52:28;;;;;;;46.88;7.32;;;;;;;;;;5100445;28;20051;-67
2023/01/12 03:54:56;;;;;;;53.58;9.15;;;;;;;;;;5097977;28;20039;-67
2023/01/12 03:57:22;;;;;;;44.53;7.47;;;;;;;;;;5103343;28;20130;-67
2023/01/12 03:59:49;;;;;;;41.67;6.78;;;;;;;;;;5105204;28;20043;-66
2023/01/12 04:02:15;;;;;;;43.22;6.80;;;;;;;;;;5106232;28;20047;-67
2023/01/12 04:04:41;;;;;;;39.22;6.75;;;;;;;;;;5100931;28;20169;-67
2023/01/12 04:07:07;;;;;;;46.53;7.00;;;;;;;;;;5096852;28;20124;-67
2023/01/12 04:09:33;;;;;;;42.70;6.45;;;;;;;;;;5101399;28;20462;-67
2023/01/12 04:12:08;;;;;;;44.53;6.50;;;;;;;;;;5104607;28;20380;-67
2023/01/12 04:14:36;;;;;;;41.33;5.55;;;;;;;;;;5104536;28;20535;-67
2023/01/12 04:17:02;;;;;;;42.83;6.93;;;;;;;;;;5095895;28;20047;-67
2023/01/12 04:19:28;;;;;;;34.10;5.47;;;;;;;;;;5101773;27;20047;-67
2023/01/12 04:24:39;;;;;;;40.78;5.85;;;;;;;;;;5092204;28;21367;-67
2023/01/12 04:27:06;;;;;;;38.17;4.57;;;;;;;;;;5101636;27;20116;-67
2023/01/12 04:29:32;;;;;;;32.15;4.50;;;;;;;;;;5104101;28;20122;-66
2023/01/12 04:31:58;;;;;;;30.65;4.60;;;;;;;;;;5099423;28;20100;-67
2023/01/12 04:34:24;;;;;;;34.70;5.70;;;;;;;;;;5102448;28;20035;-67
2023/01/12 04:36:50;;;;;;;34.30;5.38;;;;;;;;;;5097760;27;20394;-67
2023/01/12 04:39:16;;;;;;;29.02;5.20;;;;;;;;;;5105561;28;20391;-67
2023/01/12 04:41:43;;;;;;;35.20;5.43;;;;;;;;;;5103968;28;20058;-67
2023/01/12 04:44:09;;;;;;;35.58;5.60;;;;;;;;;;5101103;27;20039;-67
2023/01/12 04:46:35;;;;;;;27.45;4.07;;;;;;;;;;5098338;28;20043;-66
2023/01/12 04:49:01;;;;;;;28.73;4.22;;;;;;;;;;5102122;28;20071;-66
2023/01/12 04:51:27;;;;;;;21.90;4.75;;;;;;;;;;5095476;27;20048;-66
2023/01/12 04:53:53;;;;;;;37.10;5.63;;;;;;;;;;5094178;27;20476;-64
2023/01/12 04:56:20;;;;;;;30.98;4.05;;;;;;;;;;5099712;28;20043;-64
2023/01/12 04:58:46;;;;;;;23.02;3.22;;;;;;;;;;5098729;28;20043;-65
2023/01/12 05:01:14;;;;;;;33.38;4.10;;;;;;;;;;5098425;27;20410;-65
2023/01/12 05:03:40;;;;;;;23.73;4.88;;;;;;;;;;5094879;28;20161;-64
2023/01/12 05:06:07;;;;;;;23.92;4.28;;;;;;;;;;5093011;28;20134;-65
2023/01/12 05:11:20;;;;;;;18.60;3.85;;;;;;;;;;5103117;27;20421;-65
2023/01/12 05:13:46;;;;;;;22.63;3.83;;;;;;;;;;5100195;28;20624;-65
2023/01/12 05:16:14;;;;;;;23.40;3.50;;;;;;;;;;5101908;27;20048;-65
2023/01/12 05:18:43;;;;;;;17.75;3.17;;;;;;;;;;5098492;28;20035;-65
2023/01/12 05:21:10;;;;;;;13.52;3.10;;;;;;;;;;5102979;28;20059;-65
2023/01/12 05:23:36;;;;;;;14.77;3.95;;;;;;;;;;5100040;28;20502;-65
2023/01/12 05:26:03;;;;;;;21.45;3.95;;;;;;;;;;5097826;28;20054;-65
2023/01/12 05:28:29;;;;;;;17.92;3.45;;;;;;;;;;5100109;28;20100;-65
2023/01/12 05:31:00;;;;;;;13.40;3.22;;;;;;;;;;5094566;28;20552;-65
2023/01/12 05:33:27;;;;;;;11.57;2.78;;;;;;;;;;5097937;28;20483;-65
2023/01/12 05:35:53;;;;;;;9.23;2.80;;;;;;;;;;5103101;28;20059;-65
2023/01/12 05:38:19;;;;;;;11.18;3.22;;;;;;;;;;5099025;27;20173;-65
2023/01/12 05:40:45;;;;;;;10.57;3.05;;;;;;;;;;5101274;28;20241;-65
2023/01/12 05:46:02;;;;;;;13.40;3.10;;;;;;;;;;5111573;27;20043;-65
2023/01/12 05:48:28;;;;;;;7.53;2.60;;;;;;;;;;5095116;28;20046;-65
2023/01/12 05:50:54;;;;;;;10.20;2.10;;;;;;;;;;5102013;27;20038;-65
2023/01/12 05:53:20;;;;;;;6.22;2.05;;;;;;;;;;5094071;27;20043;-65
2023/01/12 05:55:46;;;;;;;6.43;1.80;;;;;;;;;;5104926;28;20051;-65
2023/01/12 05:58:13;;;;;;;7.78;2.38;;;;;;;;;;5103860;28;20063;-65
2023/01/12 06:00:39;;;;;;;4.80;2.20;;;;;;;;;;5106655;28;20047;-65
2023/01/12 06:03:05;;;;;;;8.93;2.47;;;;;;;;;;5102918;28;20035;-66
2023/01/12 06:05:31;;;;;;;8.32;2.30;;;;;;;;;;5103255;28;20410;-65
2023/01/12 06:07:59;;;;;;;7.53;2.22;;;;;;;;;;5105661;28;20423;-65
2023/01/12 06:10:25;;;;;;;8.55;2.60;;;;;;;;;;5104523;28;20502;-65
2023/01/12 06:15:37;;;;;;;9.93;3.20;;;;;;;;;;5105478;28;20126;-65
2023/01/12 06:18:03;;;;;;;9.15;3.35;;;;;;;;;;5106205;28;20048;-65
2023/01/12 06:20:29;;;;;;;10.45;3.50;;;;;;;;;;5103996;28;20047;-66
2023/01/12 06:22:55;;;;;;;12.32;3.53;;;;;;;;;;5103938;28;20745;-66
2023/01/12 06:25:21;;;;;;;15.23;4.38;;;;;;;;;;5102534;28;20474;-65
2023/01/12 06:27:48;;;;;;;15.63;4.45;;;;;;;;;;5103725;28;20043;-65
2023/01/12 06:30:14;;;;;;;23.95;4.88;;;;;;;;;;5104938;28;20071;-65
2023/01/12 06:32:40;;;;;;;34.35;5.10;;;;;;;;;;5103766;28;20114;-65
2023/01/12 06:35:06;;;;;;;31.13;6.53;;;;;;;;;;5107208;28;20123;-65
2023/01/12 06:37:33;;;;;;;31.15;6.45;;;;;;;;;;5106281;28;20079;-65
2023/01/12 06:39:59;;;;;;;47.55;7.50;;;;;;;;;;5106552;28;20039;-65
2023/01/12 06:42:28;;;;;;;52.55;7.20;;;;;;;;;;5107340;28;20093;-66
2023/01/12 06:44:55;;;;;;;51.40;7.90;;;;;;;;;;5098874;28;20051;-66
2023/01/12 06:47:21;;;;;;;49.55;7.60;;;;;;;;;;5107537;28;20043;-67
2023/01/12 06:49:50;;;;;;;50.05;8.20;;;;;;;;;;5108172;28;20088;-66
2023/01/12 06:52:18;;;;;;;42.88;8.27;;;;;;;;;;5104729;28;20075;-66
2023/01/12 06:54:44;;;;;;;44.25;7.20;;;;;;;;;;5099093;28;20043;-67
2023/01/12 06:57:10;;;;;;;35.00;6.95;;;;;;;;;;5109173;28;20067;-67
2023/01/12 06:59:36;;;;;;;54.25;8.45;;;;;;;;;;5097427;28;20055;-67
2023/01/12 07:02:02;;;;;;;35.28;7.05;;;;;;;;;;5106407;28;20411;-67
2023/01/12 07:04:28;;;;;;;33.35;6.68;;;;;;;;;;5104774;28;20071;-67
2023/01/12 07:06:55;;;;;;;41.50;6.05;;;;;;;;;;5106401;28;20084;-67
2023/01/12 07:09:21;;;;;;;37.30;6.03;;;;;;;;;;5103278;28;20608;-67
2023/01/12 07:11:47;;;;;;;43.50;5.93;;;;;;;;;;5104268;28;20048;-67
2023/01/12 07:14:13;;;;;;;43.03;6.30;;;;;;;;;;5096248;28;20047;-68
2023/01/12 07:16:39;;;;;;;37.20;5.45;;;;;;;;;;5103524;28;20042;-68
2023/01/12 07:19:05;;;;;;;34.67;6.15;;;;;;;;;;5103187;28;20052;-67
2023/01/12 07:21:32;;;;;;;50.50;6.85;;;;;;;;;;5100013;28;20429;-68
2023/01/12 07:23:58;;;;;;;34.75;6.43;;;;;;;;;;5100616;28;20562;-67
2023/01/12 07:26:24;;;;;;;33.45;5.55;;;;;;;;;;5080584;28;20122;-68
2023/01/12 07:28:50;;;;;;;45.35;7.28;;;;;;;;;;5097721;28;20127;-68
2023/01/12 07:31:17;;;;;;;44.55;6.55;;;;;;;;;;5102416;28;20104;-68
2023/01/12 07:33:44;;;;;;;45.75;5.70;;;;;;;;;;5099766;28;20437;-68
2023/01/12 07:36:10;;;;;;;42.05;6.32;;;;;;;;;;5096022;28;20126;-68
2023/01/12 07:38:37;;;;;;;40.72;6.40;;;;;;;;;;5108758;28;20093;-68
2023/01/12 07:41:04;;;;;;;36.70;5.97;;;;;;;;;;5107967;28;20060;-68
2023/01/12 07:43:32;;;;;;;33.38;5.32;;;;;;;;;;5108268;28;20077;-68
2023/01/12 07:45:59;;;;;;;43.90;5.80;;;;;;;;;;5109007;28;20122;-68
2023/01/12 07:48:26;;;;;;;42.28;5.63;;;;;;;;;;5096916;28;20402;-68
2023/01/12 07:50:52;;;;;;;41.88;5.72;;;;;;;;;;5104682;28;20051;-68
2023/01/12 07:53:19;;;;;;;37.83;5.40;;;;;;;;;;5108660;28;20031;-68
2023/01/12 07:55:45;;;;;;;37.45;4.97;;;;;;;;;;5105599;28;20047;-68
2023/01/12 07:58:11;;;;;;;36.92;6.25;;;;;;;;;;5106128;28;20031;-68
2023/01/12 08:00:37;;;;;;;40.35;5.35;;;;;;;;;;5101186;28;20044;-68
2023/01/12 08:03:06;;;;;;;35.65;4.57;;;;;;;;;;5101671;28;20046;-68
2023/01/12 08:05:33;;;;;;;33.63;5.95;;;;;;;;;;5100985;28;20043;-68
2023/01/12 08:07:59;;;;;;;29.52;5.32;;;;;;;;;;5103212;28;20036;-68
2023/01/12 08:10:25;;;;;;;33.30;5.57;;;;;;;;;;5104551;28;20039;-68
2023/01/12 08:12:51;;;;;;;36.65;5.80;;;;;;;;;;5105734;28;20043;-68
2023/01/12 08:15:18;;;;;;;40.33;6.00;;;;;;;;;;5092256;28;20112;-68
2023/01/12 08:17:49;;;;;;;36.30;5.82;;;;;;;;;;5102862;28;20039;-67
2023/01/12 08:20:18;;;;;;;34.38;5.15;;;;;;;;;;5096362;28;20043;-68
2023/01/12 08:22:46;;;;;;;35.20;6.15;;;;;;;;;;5106588;28;20044;-68
2023/01/12 08:25:16;;;;;;;36.30;5.30;;;;;;;;;;5107301;28;20055;-68
2023/01/12 08:27:45;;;;;;;32.03;5.55;;;;;;;;;;5105139;28;20130;-68
2023/01/12 08:30:13;;;;;;;27.15;5.45;;;;;;;;;;5104421;28;20043;-68
2023/01/12 08:32:39;;;;;;;32.03;5.10;;;;;;;;;;5103626;28;20036;-68
2023/01/12 08:35:05;;;;;;;32.08;6.05;;;;;;;;;;5109624;28;20058;-68
2023/01/12 08:37:33;;;;;;;30.00;5.40;;;;;;;;;;5103627;28;20687;-68
2023/01/12 08:40:00;;;;;;;37.28;4.82;;;;;;;;;;5104357;28;20520;-68
2023/01/12 08:42:26;;;;;;;35.35;5.13;;;;;;;;;;5102047;28;20044;-68
2023/01/12 08:44:54;;;;;;;31.10;5.25;;;;;;;;;;5095577;28;20181;-68
2023/01/12 08:47:25;;;;;;;35.20;5.75;;;;;;;;;;5105575;28;20106;-67
2023/01/12 08:49:52;;;;;;;42.65;6.22;;;;;;;;;;5100135;28;20052;-68
2023/01/12 08:52:18;;;;;;;31.15;5.30;;;;;;;;;;5096261;28;20066;-68
2023/01/12 08:54:44;;;;;;;29.67;4.50;;;;;;;;;;5105807;28;20043;-68
2023/01/12 08:57:10;;;;;;;28.90;5.30;;;;;;;;;;5106885;28;20515;-68
2023/01/12 08:59:36;;;;;;;36.88;5.55;;;;;;;;;;5096778;28;20040;-68
2023/01/12 09:02:03;;;;;;;35.42;5.70;;;;;;;;;;5105693;28;20040;-68
2023/01/12 09:04:29;;;;;;;48.47;8.00;;;;;;;;;;5085853;28;20074;-67
2023/01/12 09:06:55;;;;;;;34.08;6.22;;;;;;;;;;5105279;28;20844;-68
2023/01/12 09:09:22;;;;;;;29.95;4.53;;;;;;;;;;5105035;28;20217;-67
2023/01/12 09:11:48;;;;;;;35.63;4.88;;;;;;;;;;5106075;28;20055;-68
2023/01/12 09:14:15;;;;;;;22.17;3.88;;;;;;;;;;5107372;28;20044;-68
2023/01/12 09:16:41;;;;;;;30.77;4.55;;;;;;;;;;5106171;28;20047;-68
2023/01/12 09:19:08;;;;;;;26.40;3.83;;;;;;;;;;5104750;28;20044;-67
2023/01/12 09:21:37;;;;;;;29.90;5.15;;;;;;;;;;5099281;28;20047;-67
2023/01/12 09:24:03;;;;;;;26.45;5.82;;;;;;;;;;5105707;28;20123;-67
2023/01/12 09:26:31;;;;;;;33.00;4.78;;;;;;;;;;5103558;28;20096;-67
2023/01/12 09:28:58;;;;;;;34.85;5.57;;;;;;;;;;5106732;28;20064;-67
2023/01/12 09:31:24;;;;;;;27.80;5.43;;;;;;;;;;5097789;28;20511;-67
2023/01/12 09:33:51;;;;;;;37.20;6.18;;;;;;;;;;5097887;28;20042;-67
2023/01/12 09:36:20;;;;;;;27.17;3.95;;;;;;;;;;5100210;28;21003;-67
2023/01/12 09:38:47;;;;;;;25.80;3.75;;;;;;;;;;5105868;28;20046;-67
2023/01/12 09:46:57;;;;;;;28.40;4.85;;;;;;;;;;5103269;28;20044;-67
2023/01/12 09:47:02;;;;;;;19.13;3.33;;;;;;;;;;5106529;28;20325;-68
2023/01/12 09:49:29;;;;;;;32.47;5.45;;;;;;;;;;5102055;28;20036;-67
2023/01/12 09:52:00;;;;;;;25.02;4.40;;;;;;;;;;5107013;28;20036;-67
2023/01/12 09:54:26;;;;;;;21.48;3.83;;;;;;;;;;5098471;28;20035;-67
2023/01/12 09:57:01;;;;;;;48.03;7.45;;;;;;;;;;5103400;28;20164;-67
2023/01/12 09:59:27;;;;;;;;;;;;;;;;;;5107280;28;20063;-68
2023/01/12 10:01:53;;;;;;;28.25;5.80;;;;;;;;;;5097448;28;20316;-68
2023/01/12 10:04:20;;;;;;;32.40;4.22;;;;;;;;;;5106547;28;20062;-67
2023/01/12 10:06:46;;;;;;;25.77;4.07;;;;;;;;;;5102656;28;20054;-67
2023/01/12 10:09:16;;;;;;;21.38;3.65;;;;;;;;;;5101785;28;20058;-68
2023/01/12 10:11:47;;;;;;;23.75;3.40;;;;;;;;;;5082472;28;20051;-68
2023/01/12 10:14:18;;;;;;;34.30;4.30;;;;;;;;;;5100060;28;20031;-68
2023/01/12 10:16:57;;;;;;;34.65;4.65;;;;;;;;;;5096757;27;20700;-68
2023/01/12 10:19:29;;;;;;;24.98;4.22;;;;;;;;;;5099255;28;20154;-68
2023/01/12 10:21:56;;;;;;;37.17;5.78;;;;;;;;;;5092447;28;20105;-68
2023/01/12 10:24:23;;;;;;;25.80;5.00;;;;;;;;;;5096170;28;20134;-68
2023/01/12 10:26:52;;;;;;;28.05;4.30;;;;;;;;;;5097780;28;20044;-69
2023/01/12 10:29:19;;;;;;;33.78;4.95;;;;;;;;;;5095194;28;20052;-68
2023/01/12 10:31:46;;;;;;;39.70;5.50;;;;;;;;;;5099680;28;20055;-68
2023/01/12 10:34:12;;;;;;;43.13;7.00;;;;;;;;;;5103011;28;20121;-68
2023/01/12 10:36:43;;;;;;;40.03;4.93;;;;;;;;;;5104239;28;20498;-68
2023/01/12 10:39:27;;;;;;;27.95;5.50;;;;;;;;;;5096433;28;20105;-68
2023/01/12 10:43:17;;;;;;;34.53;5.47;;;;;;;;;;5105908;28;20078;-68
2023/01/12 10:45:12;;;;;;;33.42;5.35;;;;;;;;;;5100801;28;20790;-68
2023/01/12 10:47:39;;;;;;;42.83;6.68;;;;;;;;;;5096174;28;20368;-68
2023/01/12 10:50:19;;;;;;;28.50;4.80;;;;;;;;;;5104835;28;20402;-68
2023/01/12 10:52:46;;;;;;;40.33;5.85;;;;;;;;;;5105264;28;20050;-68
2023/01/12 10:55:19;;;;;;;30.33;5.30;;;;;;;;;;5103625;28;20044;-68
2023/01/12 10:57:46;;;;;;;35.50;6.47;;;;;;;;;;5096575;28;20502;-68
2023/01/12 11:00:20;;;;;;;38.38;4.30;;;;;;;;;;5097799;28;20075;-68
2023/01/12 11:02:46;;;;;;;;;;;;;;;;;;5107412;28;20422;-68
2023/01/12 11:05:26;;;;;;;39.80;5.93;;;;;;;;;;5105499;28;20367;-68
2023/01/12 11:07:53;;;;;;;35.13;5.20;;;;;;;;;;5105836;28;20040;-69
2023/01/12 11:10:25;;;;;;;26.75;4.38;;;;;;;;;;5106206;28;20509;-69
2023/01/12 11:12:55;;;;;;;32.33;4.00;;;;;;;;;;5105095;28;20039;-69
2023/01/12 11:15:21;;;;;;;31.60;5.60;;;;;;;;;;5104021;28;20123;-69
2023/01/12 11:17:50;;;;;;;31.27;5.13;;;;;;;;;;5105448;28;20369;-69
2023/01/12 11:20:24;;;;;;;29.38;4.45;;;;;;;;;;5105649;28;20446;-68
2023/01/12 11:22:53;;;;;;;31.05;5.40;;;;;;;;;;5105281;28;20329;-69
2023/01/12 11:25:22;;;;;;;22.17;3.90;;;;;;;;;;5104130;28;20542;-68
2023/01/12 11:27:57;;;;;;;33.33;4.85;;;;;;;;;;5097574;28;20038;-68
2023/01/12 11:30:25;;;;;;;25.80;4.78;;;;;;;;;;5105257;28;20428;-68
2023/01/12 11:32:56;;;;;;;33.22;5.55;;;;;;;;;;5096856;28;20051;-68
2023/01/12 11:35:22;;;;;;;26.15;4.13;;;;;;;;;;5106527;28;20453;-69
2023/01/12 11:37:48;;;;;;;26.60;4.53;;;;;;;;;;5106348;28;20054;-69
2023/01/12 11:40:25;;;;;;;27.90;4.15;;;;;;;;;;5104600;28;20050;-68
2023/01/12 11:45:43;;;;;;;23.80;4.15;;;;;;;;;;5088624;28;20048;-68
2023/01/12 11:48:16;;;;;;;21.98;4.10;;;;;;;;;;5087802;28;20048;-68
2023/01/12 11:50:43;;;;;;;23.85;4.22;;;;;;;;;;5097380;28;20047;-68
2023/01/12 11:53:16;;;;;;;23.73;3.92;;;;;;;;;;5107582;27;20130;-68
2023/01/12 11:55:42;;;;;;;21.27;3.78;;;;;;;;;;5109961;28;20360;-68
2023/01/12 11:58:17;;;;;;;22.20;3.38;;;;;;;;;;5091618;28;20055;-68
2023/01/12 12:00:54;;;;;;;27.85;3.50;;;;;;;;;;5109573;28;20568;-69
2023/01/12 12:03:37;;;;;;;16.52;2.88;;;;;;;;;;5108940;28;20112;-69
2023/01/12 12:06:20;;;;;;;18.00;2.83;;;;;;;;;;5098083;27;20554;-70
2023/01/12 12:09:04;;;;;;;22.17;3.10;;;;;;;;;;5112605;28;20396;-72
2023/01/12 12:11:37;;;;;;;23.05;4.10;;;;;;;;;;5110695;27;20513;-72
2023/01/12 12:14:16;;;;;;;17.38;3.53;;;;;;;;;;5112784;28;20458;-72
2023/01/12 12:16:52;;;;;;;29.77;3.80;;;;;;;;;;5112254;28;20074;-72
2023/01/12 12:19:24;;;;;;;25.73;4.45;;;;;;;;;;5110615;27;20517;-72
2023/01/12 12:21:57;;;;;;;18.17;4.05;;;;;;;;;;5107809;28;20081;-72
2023/01/12 12:24:26;;;;;;;29.38;3.65;;;;;;;;;;5105027;28;20039;-81
2023/01/12 12:26:58;;;;;;;21.98;3.50;;;;;;;;;;5109848;28;20097;-72
2023/01/12 12:29:32;;;;;;;27.60;4.22;;;;;;;;;;5109743;28;20455;-72
2023/01/12 12:32:17;;;;;;;24.05;5.03;;;;;;;;;;5113214;28;20050;-71
2023/01/12 12:34:50;;;;;;;28.25;4.60;;;;;;;;;;5103897;28;20075;-76
2023/01/12 12:37:22;;;;;;;33.55;5.05;;;;;;;;;;5104665;28;20043;-72
2023/01/12 12:39:56;;;;;;;34.88;4.70;;;;;;;;;;5112833;28;20040;-71
2023/01/12 12:45:31;;;;;;;23.05;3.83;;;;;;;;;;5112622;28;20044;-72
2023/01/12 12:48:01;;;;;;;27.30;3.92;;;;;;;;;;5112987;28;20142;-71
2023/01/12 12:50:29;;;;;;;30.83;4.22;;;;;;;;;;5109480;28;20130;-72
2023/01/12 12:53:13;;;;;;;31.17;4.57;;;;;;;;;;5111228;28;20032;-71
2023/01/12 12:55:39;;;;;;;;;;;;;;;;;;5108258;28;20148;-71
2023/01/12 12:58:25;;;;;;;29.55;5.00;;;;;;;;;;5106916;28;19935;-71
2023/01/12 13:00:53;;;;;;;28.83;4.53;;;;;;;;;;5100561;28;20047;-71
2023/01/12 13:03:45;;;;;;;33.17;4.63;;;;;;;;;;5109107;28;20329;-68
2023/01/12 13:06:23;;;;;;;33.72;5.43;;;;;;;;;;5106078;28;20054;-71
2023/01/12 13:08:53;;;;;;;27.92;4.40;;;;;;;;;;5104559;28;20035;-71
2023/01/12 13:11:20;;;;;;;38.80;5.32;;;;;;;;;;5108719;28;20039;-71
2023/01/12 13:14:05;;;;;;;20.92;4.15;;;;;;;;;;5103416;28;20126;-72
2023/01/12 13:16:32;;;;;;;32.58;4.30;;;;;;;;;;5102573;28;20491;-71
2023/01/12 13:18:58;;;;;;;26.48;4.63;;;;;;;;;;5098915;27;20036;-72
2023/01/12 13:21:42;;;;;;;24.73;5.07;;;;;;;;;;5105294;28;20679;-70
2023/01/12 13:24:10;;;;;;;24.30;3.65;;;;;;;;;;5098355;28;20043;-71
2023/01/12 13:26:38;;;;;;;30.25;4.72;;;;;;;;;;5108358;28;20413;-71
2023/01/12 13:29:23;;;;;;;33.65;3.90;;;;;;;;;;5106715;28;20075;-72
2023/01/12 13:31:49;;;;;;;31.40;5.63;;;;;;;;;;5094873;28;20052;-72
2023/01/12 13:34:34;;;;;;;33.67;4.88;;;;;;;;;;5103108;28;20070;-72
2023/01/12 13:37:07;;;;;;;32.47;5.20;;;;;;;;;;5103547;28;20047;-72
2023/01/12 13:39:36;;;;;;;28.75;4.85;;;;;;;;;;5101825;28;20036;-72
2023/01/12 13:44:48;;;;;;;35.75;5.50;;;;;;;;;;5103934;27;20040;-72
2023/01/12 13:47:18;;;;;;;30.42;5.45;;;;;;;;;;5097921;27;20040;-72
2023/01/12 13:49:47;;;;;;;38.35;5.15;;;;;;;;;;5104483;28;20044;-72
2023/01/12 13:52:24;;;;;;;38.15;4.57;;;;;;;;;;5098958;28;20047;-72
2023/01/12 13:54:50;;;;;;;28.75;5.72;;;;;;;;;;5102876;27;20401;-71
2023/01/12 13:57:19;;;;;;;29.88;5.35;;;;;;;;;;5103587;28;20558;-71
2023/01/12 13:59:59;;;;;;;32.17;6.18;;;;;;;;;;5104512;28;20040;-72
2023/01/12 14:02:27;;;;;;;28.88;6.35;;;;;;;;;;5107211;28;20040;-72
2023/01/12 14:05:04;;;;;;;33.63;5.22;;;;;;;;;;5105810;28;20588;-72
2023/01/12 14:07:42;;;;;;;35.30;5.40;;;;;;;;;;5106420;28;20051;-73
2023/01/12 14:10:18;;;;;;;40.08;5.95;;;;;;;;;;5096580;28;20063;-72
2023/01/12 14:12:57;;;;;;;33.55;5.85;;;;;;;;;;5107108;28;20067;-72
2023/01/12 14:18:17;;;;;;;29.95;5.03;;;;;;;;;;5106581;28;20499;-72
2023/01/12 14:20:45;;;;;;;38.95;5.47;;;;;;;;;;5102249;28;20139;-72
2023/01/12 14:23:13;;;;;;;34.97;5.30;;;;;;;;;;5104807;28;20051;-72
2023/01/12 14:25:39;;;;;;;40.13;5.53;;;;;;;;;;5096686;28;20387;-70
2023/01/12 14:28:14;;;;;;;36.22;5.00;;;;;;;;;;5098624;28;20044;-71
2023/01/12 14:30:44;;;;;;;29.20;4.53;;;;;;;;;;5103922;28;20499;-71
2023/01/12 14:33:16;;;;;;;21.13;3.63;;;;;;;;;;5091832;28;20043;-71
2023/01/12 14:35:52;;;;;;;21.67;3.47;;;;;;;;;;5094419;28;20047;-70
2023/01/12 14:38:18;;;;;;;27.40;3.38;;;;;;;;;;5102946;27;20043;-70
2023/01/12 14:40:49;;;;;;;20.83;3.83;;;;;;;;;;5100146;28;20047;-71
2023/01/12 14:48:56;;;;;;;20.63;4.47;;;;;;;;;;5093294;28;20044;-71
2023/01/12 14:51:29;;;;;;;18.50;3.22;;;;;;;;;;5101553;27;20088;-71
2023/01/12 14:53:57;;;;;;;19.65;4.13;;;;;;;;;;5102084;28;20039;-71
2023/01/12 14:56:25;;;;;;;16.05;4.68;;;;;;;;;;5100266;28;20130;-71
2023/01/12 14:58:52;;;;;;;17.92;3.95;;;;;;;;;;5102476;28;20467;-70
2023/01/12 15:01:32;;;;;;;20.50;4.20;;;;;;;;;;5094488;28;20510;-70
2023/01/12 15:03:59;;;;;;;17.80;3.78;;;;;;;;;;5095906;28;20040;-70
2023/01/12 15:06:25;;;;;;;18.55;3.67;;;;;;;;;;5102951;27;20033;-70
2023/01/12 15:08:54;;;;;;;14.82;3.67;;;;;;;;;;5093468;28;20067;-70
2023/01/12 15:11:31;;;;;;;14.70;3.80;;;;;;;;;;5104509;27;20045;-71
2023/01/12 15:13:58;;;;;;;23.52;4.70;;;;;;;;;;5103320;28;20051;-70
2023/01/12 15:27:25;;;;;;;30.40;6.22;;;;;;;;;;5092640;28;20043;-70
2023/01/12 15:29:52;;;;;;;40.22;6.47;;;;;;;;;;5104566;28;20184;-71
2023/01/12 15:32:21;;;;;;;39.67;7.00;;;;;;;;;;5090346;28;20098;-70
2023/01/12 15:34:48;;;;;;;51.92;7.75;;;;;;;;;;5094358;28;20127;-71